Terminal Aerodrome Forecast
Issued by NWS

Current Version | Previous Version | Graphics & Text | Print | Product List | Glossary On
Versions: 1 2 3 4 5 6 7 8 9 10 11 12 13 14 15 16 17 18 19 20 21 22 23 24
000
FTUS41 KILN 152328
TAFLUK
TAF
KLUK 152328Z 1600/1624 21012G20KT P6SM VCSH BKN035
     FM160100 21012G20KT P6SM VCTS OVC025CB
      TEMPO 1602/1605 4SM SHRA OVC025
     FM160500 23014G22KT 2SM SHRA OVC015
     FM160900 31012G18KT 4SM SHRA OVC015
     FM161200 33012KT P6SM VCSH OVC015
     FM161600 34012KT P6SM BKN018
     FM162200 34008KT P6SM SCT025=

USA.gov is the U.S. government's official web portal to all federal, state and local government web resources and services.